Sirios Cement IV — 9HQE8 — position and weather

sailwx.info

Track history (hours):
 
Tides and Currents Weather Stations Pressure Air Temp Water Temp Dewpoint Dewpoint Depression Visibility Wind Speed Wind Dir Waves Ship Positions

Sirios Cement IV

Last reported at 2016-Jul-25 13:33 UTC. Time now 2016-Jul-31 09:26 UTC.
Position N 44°32' E 013°03'.

Length 134 m; draft 6 m.

Type: Cargo ship. MMSI: 256278000.

Date/timePositionNaut miles runAvg speedWind from/ knotsBaromVisibWave heightAir tempDewpointWater temp
2016-Jul-25 13:33N 44°32' E 013°03'31 9.8
2016-Jul-25 10:21N 45°01' E 012°46'8 9.5
2016-Jul-25 09:33N 45°08' E 012°40'9 9.1
2016-Jul-25 08:33N 45°14' E 012°30'9 9.0
2016-Jul-25 07:33N 45°20' E 012°21'7 7.1
2016-Jul-25 06:33N 45°26' E 012°16'2 0.9
2016-Jul-25 04:32N 45°28' E 012°15'0 0.0
2016-Jul-25 02:32N 45°28' E 012°15'0 0.0
2016-Jul-25 01:32N 45°28' E 012°15'0 0.0
2016-Jul-25 00:32N 45°28' E 012°15'0 0.0
2016-Jul-24 23:32N 45°28' E 012°15'0 0.0
2016-Jul-24 22:32N 45°28' E 012°15'0 0.0
2016-Jul-24 21:33N 45°28' E 012°15'0 0.0
2016-Jul-24 20:33N 45°28' E 012°15'0 0.0
2016-Jul-24 19:30N 45°28' E 012°15'0 0.0
2016-Jul-24 18:30N 45°28' E 012°15'0 0.0
2016-Jul-24 17:12N 45°28' E 012°15'0 0.0
2016-Jul-24 16:12N 45°28' E 012°15'0 0.0
2016-Jul-24 15:24N 45°28' E 012°15'0 0.0
2016-Jul-24 14:24N 45°28' E 012°15'0 0.0
2016-Jul-24 12:18N 45°28' E 012°15'0 0.0
2016-Jul-24 06:18N 45°28' E 012°15'0 0.0
2016-Jul-24 05:33N 45°28' E 012°15'0 0.0
2016-Jul-24 04:15N 45°28' E 012°15'0 0.0
2016-Jul-24 03:18N 45°28' E 012°15'0 0.0
2016-Jul-24 02:33N 45°28' E 012°15'0 0.0
2016-Jul-24 01:30N 45°28' E 012°15'0 0.0
2016-Jul-23 23:12N 45°28' E 012°15'0 0.0
2016-Jul-23 21:22N 45°28' E 012°15'0 0.0
2016-Jul-23 20:08N 45°28' E 012°15'0 0.0
2016-Jul-23 19:25N 45°28' E 012°15'0 0.0
2016-Jul-23 18:28N 45°28' E 012°15'0 0.0
2016-Jul-23 16:14N 45°28' E 012°15'0 0.0
2016-Jul-23 15:32N 45°28' E 012°15'0 0.0
2016-Jul-23 12:17N 45°28' E 012°15'0 0.0
2016-Jul-23 11:29N 45°28' E 012°15'0 0.0
2016-Jul-23 06:29N 45°28' E 012°15'0 0.0
2016-Jul-23 04:32N 45°28' E 012°15'0 0.0
2016-Jul-23 03:11N 45°28' E 012°15'0 0.0
2016-Jul-23 02:23N 45°28' E 012°15'0 0.0
2016-Jul-23 01:23N 45°28' E 012°15'0 0.0
2016-Jul-22 23:32N 45°28' E 012°15'0 0.0
2016-Jul-22 22:32N 45°28' E 012°15'0 0.0
2016-Jul-22 19:05N 45°28' E 012°15'0 0.0
2016-Jul-22 18:29N 45°28' E 012°15'0 0.0
2016-Jul-22 17:32N 45°28' E 012°15'0 0.0
2016-Jul-22 16:29N 45°28' E 012°15'0 0.0
2016-Jul-22 15:17N 45°28' E 012°15'0 0.0
2016-Jul-22 04:26N 45°28' E 012°15'0 0.0
2016-Jul-22 03:32N 45°28' E 012°15'0 0.0
2016-Jul-22 02:23N 45°28' E 012°15'0 0.0
2016-Jul-22 01:26N 45°28' E 012°15'0 0.0
2016-Jul-22 00:23N 45°28' E 012°15'0 0.0
2016-Jul-21 22:29N 45°28' E 012°15'0 0.0
2016-Jul-21 20:32N 45°28' E 012°15'0 0.0
2016-Jul-21 18:08N 45°28' E 012°15'0 0.0
2016-Jul-21 16:32N 45°28' E 012°15'1 0.5
2016-Jul-21 15:29N 45°27' E 012°16'6 6.6
2016-Jul-21 14:33N 45°21' E 012°15'7 6.5
2016-Jul-21 13:33N 45°19' E 012°24'9 8.6
2016-Jul-21 12:33N 45°15' E 012°35'38 9.0
2016-Jul-21 08:22N 44°57' E 013°21'8 9.4
2016-Jul-21 07:34N 44°51' E 013°28'10 9.8
2016-Jul-21 06:34N 44°42' E 013°35'  
Track history (hours):
 
Tides and Currents Weather Stations Pressure Air Temp Water Temp Dewpoint Dewpoint Depression Visibility Wind Speed Wind Dir Waves Ship Positions

Sirios Cement IV

Last reported at 2016-Jul-25 13:33 UTC. Time now 2016-Jul-31 09:26 UTC.
Position N 44°32' E 013°03'.

Length 134 m; draft 6 m.

Type: Cargo ship. MMSI: 256278000.

Date/timePositionNaut miles runAvg speedWind from/ knotsBaromVisibWave heightAir tempDewpointWater temp
2016-Jul-25 13:33N 44°32' E 013°03'31 9.8
2016-Jul-25 10:21N 45°01' E 012°46'8 9.5
2016-Jul-25 09:33N 45°08' E 012°40'9 9.1
2016-Jul-25 08:33N 45°14' E 012°30'9 9.0
2016-Jul-25 07:33N 45°20' E 012°21'7 7.1
2016-Jul-25 06:33N 45°26' E 012°16'2 0.9
2016-Jul-25 04:32N 45°28' E 012°15'0 0.0
2016-Jul-25 02:32N 45°28' E 012°15'0 0.0
2016-Jul-25 01:32N 45°28' E 012°15'0 0.0
2016-Jul-25 00:32N 45°28' E 012°15'0 0.0
2016-Jul-24 23:32N 45°28' E 012°15'0 0.0
2016-Jul-24 22:32N 45°28' E 012°15'0 0.0
2016-Jul-24 21:33N 45°28' E 012°15'0 0.0
2016-Jul-24 20:33N 45°28' E 012°15'0 0.0
2016-Jul-24 19:30N 45°28' E 012°15'0 0.0
2016-Jul-24 18:30N 45°28' E 012°15'0 0.0
2016-Jul-24 17:12N 45°28' E 012°15'0 0.0
2016-Jul-24 16:12N 45°28' E 012°15'0 0.0
2016-Jul-24 15:24N 45°28' E 012°15'0 0.0
2016-Jul-24 14:24N 45°28' E 012°15'0 0.0
2016-Jul-24 12:18N 45°28' E 012°15'0 0.0
2016-Jul-24 06:18N 45°28' E 012°15'0 0.0
2016-Jul-24 05:33N 45°28' E 012°15'0 0.0
2016-Jul-24 04:15N 45°28' E 012°15'0 0.0
2016-Jul-24 03:18N 45°28' E 012°15'0 0.0
2016-Jul-24 02:33N 45°28' E 012°15'0 0.0
2016-Jul-24 01:30N 45°28' E 012°15'0 0.0
2016-Jul-23 23:12N 45°28' E 012°15'0 0.0
2016-Jul-23 21:22N 45°28' E 012°15'0 0.0
2016-Jul-23 20:08N 45°28' E 012°15'0 0.0
2016-Jul-23 19:25N 45°28' E 012°15'0 0.0
2016-Jul-23 18:28N 45°28' E 012°15'0 0.0
2016-Jul-23 16:14N 45°28' E 012°15'0 0.0
2016-Jul-23 15:32N 45°28' E 012°15'0 0.0
2016-Jul-23 12:17N 45°28' E 012°15'0 0.0
2016-Jul-23 11:29N 45°28' E 012°15'0 0.0
2016-Jul-23 06:29N 45°28' E 012°15'0 0.0
2016-Jul-23 04:32N 45°28' E 012°15'0 0.0
2016-Jul-23 03:11N 45°28' E 012°15'0 0.0
2016-Jul-23 02:23N 45°28' E 012°15'0 0.0
2016-Jul-23 01:23N 45°28' E 012°15'0 0.0
2016-Jul-22 23:32N 45°28' E 012°15'0 0.0
2016-Jul-22 22:32N 45°28' E 012°15'0 0.0
2016-Jul-22 19:05N 45°28' E 012°15'0 0.0
2016-Jul-22 18:29N 45°28' E 012°15'0 0.0
2016-Jul-22 17:32N 45°28' E 012°15'0 0.0
2016-Jul-22 16:29N 45°28' E 012°15'0 0.0
2016-Jul-22 15:17N 45°28' E 012°15'0 0.0
2016-Jul-22 04:26N 45°28' E 012°15'0 0.0
2016-Jul-22 03:32N 45°28' E 012°15'0 0.0
2016-Jul-22 02:23N 45°28' E 012°15'0 0.0
2016-Jul-22 01:26N 45°28' E 012°15'0 0.0
2016-Jul-22 00:23N 45°28' E 012°15'0 0.0
2016-Jul-21 22:29N 45°28' E 012°15'0 0.0
2016-Jul-21 20:32N 45°28' E 012°15'0 0.0
2016-Jul-21 18:08N 45°28' E 012°15'0 0.0
2016-Jul-21 16:32N 45°28' E 012°15'1 0.5
2016-Jul-21 15:29N 45°27' E 012°16'6 6.6
2016-Jul-21 14:33N 45°21' E 012°15'7 6.5
2016-Jul-21 13:33N 45°19' E 012°24'9 8.6
2016-Jul-21 12:33N 45°15' E 012°35'38 9.0
2016-Jul-21 08:22N 44°57' E 013°21'8 9.4
2016-Jul-21 07:34N 44°51' E 013°28'10 9.8
2016-Jul-21 06:34N 44°42' E 013°35'  

Dump ship's entire track history